(°C)
-1°
-1°
(°C)
-2°
-3°
-4°
-4°
-5°
-5°
-6°
NNV
NNV
NNV
NNV
NNV
NNV
NNV
(km/h)
12-24
11-24
10-23
9-21
9-20
9-17
9-17
(mm)
0
0
0
0
0
0
0
(%)
0
0
0
0
0
0
0

Elevația soarelui

/ -36.9°
sun-icon
UV 0
07:23
15:59
Primul pătrar (31°)
10:05
17:57

METAR pentru Ivanka pri Dunaji (LZIB)

Ora Condiții Temperatură/
Punctul de rouă
Vânt Vizibilitate Vremea Nori Presiune Schimbă Brut
VFR 2°C / -2°C 330º 9kt >10km - Few Clouds 2200ft 1013 No Significant change LZIB 061830Z 33009KT 9999 FEW022 02/M02 Q1013 NOSIG
MVFR 3°C / -1°C 330º 11kt >10km - Few Clouds 2200ft
Broken Clouds 2500ft
1013 No Significant change LZIB 061800Z 33011KT 9999 FEW022 BKN025 03/M01 Q1013 NOSIG
MVFR 3°C / -1°C 330º 12kt >10km - Few Clouds 2000ft
Broken Clouds 2700ft
1012 No Significant change LZIB 061730Z 33012KT 9999 FEW020 BKN027 03/M01 Q1012 NOSIG
MVFR 3°C / -1°C 340º 11kt >10km - Few Clouds 2100ft
Broken Clouds 3000ft
1012 No Significant change LZIB 061700Z 34011KT 9999 FEW021 BKN030 03/M01 Q1012 NOSIG
VFR 3°C / 0°C 340º 8kt >10km - Few Clouds 2000ft
Broken Clouds 3300ft
1012 No Significant change LZIB 061630Z 34008KT 9999 FEW020 BKN033 03/M00 Q1012 NOSIG
VFR 3°C / 0°C 330º 11kt >10km - Scattered Clouds 2000ft
Broken Clouds 3300ft
1012 No Significant change LZIB 061600Z 33011KT 9999 SCT020 BKN033 03/M00 Q1012 NOSIG
MVFR 3°C / 0°C 340º 8kt >10km - Few Clouds 1500ft
Broken Clouds 1800ft
1012 No Significant change LZIB 061530Z 34008KT 9999 FEW015 BKN018 03/M00 Q1012 NOSIG
MVFR 3°C / 1°C 340º 7kt >10km - Few Clouds 1700ft
Broken Clouds 2000ft
1011 No Significant change LZIB 061500Z 34007KT 9999 FEW017 BKN020 03/01 Q1011 NOSIG
MVFR 4°C / 0°C 330º 9kt >10km - Few Clouds 1000ft
Broken Clouds 2000ft
1011 No Significant change LZIB 061430Z 33009KT 9999 FEW010 BKN020 04/00 Q1011 NOSIG
MVFR 4°C / 0°C 340º 10kt >10km - Few Clouds 1200ft
Broken Clouds 2300ft
1011 No Significant change LZIB 061400Z 34010KT 9999 FEW012 BKN023 04/00 Q1011 NOSIG
VFR 4°C / 0°C 330º 11kt >10km - Few Clouds 1000ft
Scattered Clouds 2100ft
Broken Clouds 3800ft
1011 No Significant change LZIB 061330Z 33011KT 9999 FEW010 SCT021 BKN038 04/00 Q1011 NOSIG
MVFR 4°C / 1°C 320º 11kt >10km - Few Clouds 1000ft
Scattered Clouds 1900ft
Broken Clouds 3000ft
1010 No Significant change LZIB 061300Z 32011KT 9999 FEW010 SCT019 BKN030 04/01 Q1010 NOSIG
MVFR 4°C / 1°C 320º 13kt >10km - Few Clouds 1000ft
Scattered Clouds 1900ft
Broken Clouds 2400ft
1010 No Significant change LZIB 061230Z 32013KT 9999 FEW010 SCT019 BKN024 04/01 Q1010 NOSIG
VFR 4°C / 0°C 330º 10kt >10km - Few Clouds 1000ft
Scattered Clouds 1800ft
Broken Clouds 3200ft
1010 No Significant change LZIB 061200Z 33010KT 9999 FEW010 SCT018 BKN032 04/00 Q1010 NOSIG
MVFR 4°C / 0°C 320º 12kt >10km - Few Clouds 1000ft
Broken Clouds 1800ft
1010 No Significant change LZIB 061130Z 32012KT 9999 FEW010 BKN018 04/00 Q1010 NOSIG
MVFR 4°C / 1°C 320º 11kt >10km - Few Clouds 1000ft
Broken Clouds 1900ft
1010 No Significant change LZIB 061100Z 32011KT 9999 FEW010 BKN019 04/01 Q1010 NOSIG
MVFR 3°C / 1°C 320º 8kt >10km - Few Clouds 1000ft
Broken Clouds 1800ft
1010 No Significant change LZIB 061030Z 32008KT 9999 FEW010 BKN018 03/01 Q1010 NOSIG
MVFR 3°C / 0°C 330º 9kt >10km - Few Clouds 900ft
Broken Clouds 1600ft
1010 No Significant change LZIB 061000Z 33009KT 9999 FEW009 BKN016 03/00 Q1010 NOSIG
MVFR 3°C / 1°C 310º 9kt >10km - Few Clouds 900ft
Broken Clouds 1500ft
1010 No Significant change LZIB 060930Z 31009KT 9999 FEW009 BKN015 03/01 Q1010 NOSIG
MVFR 3°C / 1°C 310º 9kt >10km - Few Clouds 800ft
Broken Clouds 1400ft
1010 No Significant change LZIB 060900Z 31009KT 9999 FEW008 BKN014 03/01 Q1010 NOSIG
VFR 3°C / 1°C 300º 11kt >10km - Few Clouds 700ft
Scattered Clouds 1500ft
1010 No Significant change LZIB 060830Z 30011KT 9999 FEW007 SCT015 03/01 Q1010 NOSIG
VFR 3°C / 1°C 310º 9kt >10km - Few Clouds 500ft
Scattered Clouds 1500ft
1009 No Significant change LZIB 060800Z 31009KT 9999 FEW005 SCT015 03/01 Q1009 NOSIG
VFR 2°C / 1°C 290º 7kt >10km - Few Clouds 500ft
Scattered Clouds 1300ft
1009 No Significant change LZIB 060730Z 29007KT 9999 FEW005 SCT013 02/01 Q1009 NOSIG
VFR 2°C / 0°C 320º 14kt >10km - Few Clouds 800ft
Scattered Clouds 2600ft
1009 No Significant change LZIB 060700Z 32014KT 9999 FEW008 SCT026 02/00 Q1009 NOSIG

VFR

2°C / -2°C

[Mai mult]
Vânt 330º 9kt
Vizibilitate >10km
Vremea -
Nori Few Clouds 2200ft
Presiune 1013
Schimbă No Significant change
Brut LZIB 061830Z 33009KT 9999 FEW022 02/M02 Q1013 NOSIG

MVFR

3°C / -1°C

[Mai mult]
Vânt 330º 11kt
Vizibilitate >10km
Vremea -
Nori Few Clouds 2200ft
Broken Clouds 2500ft
Presiune 1013
Schimbă No Significant change
Brut LZIB 061800Z 33011KT 9999 FEW022 BKN025 03/M01 Q1013 NOSIG

MVFR

3°C / -1°C

[Mai mult]
Vânt 330º 12kt
Vizibilitate >10km
Vremea -
Nori Few Clouds 2000ft
Broken Clouds 2700ft
Presiune 1012
Schimbă No Significant change
Brut LZIB 061730Z 33012KT 9999 FEW020 BKN027 03/M01 Q1012 NOSIG

MVFR

3°C / -1°C

[Mai mult]
Vânt 340º 11kt
Vizibilitate >10km
Vremea -
Nori Few Clouds 2100ft
Broken Clouds 3000ft
Presiune 1012
Schimbă No Significant change
Brut LZIB 061700Z 34011KT 9999 FEW021 BKN030 03/M01 Q1012 NOSIG

VFR

3°C / 0°C

[Mai mult]
Vânt 340º 8kt
Vizibilitate >10km
Vremea -
Nori Few Clouds 2000ft
Broken Clouds 3300ft
Presiune 1012
Schimbă No Significant change
Brut LZIB 061630Z 34008KT 9999 FEW020 BKN033 03/M00 Q1012 NOSIG

VFR

3°C / 0°C

[Mai mult]
Vânt 330º 11kt
Vizibilitate >10km
Vremea -
Nori Scattered Clouds 2000ft
Broken Clouds 3300ft
Presiune 1012
Schimbă No Significant change
Brut LZIB 061600Z 33011KT 9999 SCT020 BKN033 03/M00 Q1012 NOSIG

MVFR

3°C / 0°C

[Mai mult]
Vânt 340º 8kt
Vizibilitate >10km
Vremea -
Nori Few Clouds 1500ft
Broken Clouds 1800ft
Presiune 1012
Schimbă No Significant change
Brut LZIB 061530Z 34008KT 9999 FEW015 BKN018 03/M00 Q1012 NOSIG

MVFR

3°C / 1°C

[Mai mult]
Vânt 340º 7kt
Vizibilitate >10km
Vremea -
Nori Few Clouds 1700ft
Broken Clouds 2000ft
Presiune 1011
Schimbă No Significant change
Brut LZIB 061500Z 34007KT 9999 FEW017 BKN020 03/01 Q1011 NOSIG

MVFR

4°C / 0°C

[Mai mult]
Vânt 330º 9kt
Vizibilitate >10km
Vremea -
Nori Few Clouds 1000ft
Broken Clouds 2000ft
Presiune 1011
Schimbă No Significant change
Brut LZIB 061430Z 33009KT 9999 FEW010 BKN020 04/00 Q1011 NOSIG

MVFR

4°C / 0°C

[Mai mult]
Vânt 340º 10kt
Vizibilitate >10km
Vremea -
Nori Few Clouds 1200ft
Broken Clouds 2300ft
Presiune 1011
Schimbă No Significant change
Brut LZIB 061400Z 34010KT 9999 FEW012 BKN023 04/00 Q1011 NOSIG

VFR

4°C / 0°C

[Mai mult]
Vânt 330º 11kt
Vizibilitate >10km
Vremea -
Nori Few Clouds 1000ft
Scattered Clouds 2100ft
Broken Clouds 3800ft
Presiune 1011
Schimbă No Significant change
Brut LZIB 061330Z 33011KT 9999 FEW010 SCT021 BKN038 04/00 Q1011 NOSIG

MVFR

4°C / 1°C

[Mai mult]
Vânt 320º 11kt
Vizibilitate >10km
Vremea -
Nori Few Clouds 1000ft
Scattered Clouds 1900ft
Broken Clouds 3000ft
Presiune 1010
Schimbă No Significant change
Brut LZIB 061300Z 32011KT 9999 FEW010 SCT019 BKN030 04/01 Q1010 NOSIG

MVFR

4°C / 1°C

[Mai mult]
Vânt 320º 13kt
Vizibilitate >10km
Vremea -
Nori Few Clouds 1000ft
Scattered Clouds 1900ft
Broken Clouds 2400ft
Presiune 1010
Schimbă No Significant change
Brut LZIB 061230Z 32013KT 9999 FEW010 SCT019 BKN024 04/01 Q1010 NOSIG

VFR

4°C / 0°C

[Mai mult]
Vânt 330º 10kt
Vizibilitate >10km
Vremea -
Nori Few Clouds 1000ft
Scattered Clouds 1800ft
Broken Clouds 3200ft
Presiune 1010
Schimbă No Significant change
Brut LZIB 061200Z 33010KT 9999 FEW010 SCT018 BKN032 04/00 Q1010 NOSIG

MVFR

4°C / 0°C

[Mai mult]
Vânt 320º 12kt
Vizibilitate >10km
Vremea -
Nori Few Clouds 1000ft
Broken Clouds 1800ft
Presiune 1010
Schimbă No Significant change
Brut LZIB 061130Z 32012KT 9999 FEW010 BKN018 04/00 Q1010 NOSIG

MVFR

4°C / 1°C

[Mai mult]
Vânt 320º 11kt
Vizibilitate >10km
Vremea -
Nori Few Clouds 1000ft
Broken Clouds 1900ft
Presiune 1010
Schimbă No Significant change
Brut LZIB 061100Z 32011KT 9999 FEW010 BKN019 04/01 Q1010 NOSIG

MVFR

3°C / 1°C

[Mai mult]
Vânt 320º 8kt
Vizibilitate >10km
Vremea -
Nori Few Clouds 1000ft
Broken Clouds 1800ft
Presiune 1010
Schimbă No Significant change
Brut LZIB 061030Z 32008KT 9999 FEW010 BKN018 03/01 Q1010 NOSIG

MVFR

3°C / 0°C

[Mai mult]
Vânt 330º 9kt
Vizibilitate >10km
Vremea -
Nori Few Clouds 900ft
Broken Clouds 1600ft
Presiune 1010
Schimbă No Significant change
Brut LZIB 061000Z 33009KT 9999 FEW009 BKN016 03/00 Q1010 NOSIG

MVFR

3°C / 1°C

[Mai mult]
Vânt 310º 9kt
Vizibilitate >10km
Vremea -
Nori Few Clouds 900ft
Broken Clouds 1500ft
Presiune 1010
Schimbă No Significant change
Brut LZIB 060930Z 31009KT 9999 FEW009 BKN015 03/01 Q1010 NOSIG

MVFR

3°C / 1°C

[Mai mult]
Vânt 310º 9kt
Vizibilitate >10km
Vremea -
Nori Few Clouds 800ft
Broken Clouds 1400ft
Presiune 1010
Schimbă No Significant change
Brut LZIB 060900Z 31009KT 9999 FEW008 BKN014 03/01 Q1010 NOSIG

VFR

3°C / 1°C

[Mai mult]
Vânt 300º 11kt
Vizibilitate >10km
Vremea -
Nori Few Clouds 700ft
Scattered Clouds 1500ft
Presiune 1010
Schimbă No Significant change
Brut LZIB 060830Z 30011KT 9999 FEW007 SCT015 03/01 Q1010 NOSIG

VFR

3°C / 1°C

[Mai mult]
Vânt 310º 9kt
Vizibilitate >10km
Vremea -
Nori Few Clouds 500ft
Scattered Clouds 1500ft
Presiune 1009
Schimbă No Significant change
Brut LZIB 060800Z 31009KT 9999 FEW005 SCT015 03/01 Q1009 NOSIG

VFR

2°C / 1°C

[Mai mult]
Vânt 290º 7kt
Vizibilitate >10km
Vremea -
Nori Few Clouds 500ft
Scattered Clouds 1300ft
Presiune 1009
Schimbă No Significant change
Brut LZIB 060730Z 29007KT 9999 FEW005 SCT013 02/01 Q1009 NOSIG

VFR

2°C / 0°C

[Mai mult]
Vânt 320º 14kt
Vizibilitate >10km
Vremea -
Nori Few Clouds 800ft
Scattered Clouds 2600ft
Presiune 1009
Schimbă No Significant change
Brut LZIB 060700Z 32014KT 9999 FEW008 SCT026 02/00 Q1009 NOSIG

TAF pentru Ivanka pri Dunaji (LZIB)

From till


From till Wind 350º 11kt. Visibility 10km or more. Scattered Clouds 2000ft. Broken Clouds 3300ft.
With 30% probability, Temporarly from till Few Clouds 700ft. Broken Clouds 1400ft.
Becoming from till Wind 350º 6kt. Visibility 10km or more. Scattered Clouds 2000ft. Broken Clouds 3300ft.
Becoming from till Wind 300º 4kt. Visibility 10km or more. Scattered Clouds 2000ft. Broken Clouds 3300ft.

Brut: TAF LZIB 061700Z 0618/0718 35011KT 9999 SCT020 BKN033 PROB30 TEMPO 0703/0706 FEW007 BKN014 BECMG 0706/0708 35006KT BECMG 0716/0718 30004KT

Radar și nowcast de precipitații pentru Ivanka pri Dunaji

Burniță
Ușoară
Moderat
Greu
Foarte greu
Grindină

Markerul de locație este plasat în Ivanka pri Dunaji. Această animație arată radarul de precipitații pentru ultima oră, precum și o 1h prognoză. Ploaia sau ninsoarea slabă ar putea fi invizibilă pentru radar. Intensitatea precipitațiilor este codificată prin culori, de la albastru deschis la portocaliu.

Imagini satelitare și ploaie pentru Ivanka pri Dunaji, Slovacia

Markerul cu locaţia este poziţionat pe Ivanka pri Dunaji. [Mai mult]

Imaginea satelitară în timp real combină lumina vizibilă din timpul zilei cu radiația cu infraroșu din timpul nopții. Pe timp de noapte, imaginea nu este întunecată, deoarece radiația cu infraroșu poate detecta diferențele de temperatură. Din păcate, norii joși și ceața sunt greu de recunoscut față de temperatura de la sol, din această cauză putând fi invizibili pe timp de noapte. Imaginile satelitare Meteosat pentru Europa sunt actualizate în timp real din 5 în 5 minute. Imaginile GOES-16/GOES-17 (America de Nord și de Sud) și Himawari (Asia) sunt actualizate din 10 în 10 minute.

Cantitatea de precipitaţii este estimată cu ajutorul radarelor şi a sateliţilor. Estimările satelitare privind cantitatea de precipitaţii sunt mai puţin exacte noaptea decât în timpul zilei. Crucile portocalii marchează locurile unde fulger a fost detectat (over Europa).

Toate drepturile rezervate 2021 EUMETSAT / meteoblue. Datele despre fulgere furnizate de către nowcast.